Terminal Aerodrome Forecast
Issued by NWS

Home | Current Version | Previous Version | Text Only | Print | Product List | Glossary On
Versions: 1 2 3 4 5 6 7 8 9 10 11 12 13 14 15 16
000
FTUS45 KABQ 031720
TAFTCC
TAF
KTCC 031720Z 0318/0418 22010KT P6SM SCT060 SCT120
     FM032300 21011KT P6SM VCSH SCT060 BKN100
     FM040200 19010KT P6SM VCTS BKN060CB BKN100
     FM040600 23007KT P6SM FEW120=

USA.gov is the U.S. government's official web portal to all federal, state and local government web resources and services.